createdAt,value
2024-05-09T00:00:43.547Z,93.06
2024-05-09T00:04:46.000Z,92.11
2024-05-09T00:08:48.320Z,92.47
2024-05-09T00:12:50.565Z,92.99
2024-05-09T00:16:52.835Z,93.51
2024-05-09T00:20:55.147Z,93.09
2024-05-09T00:24:57.421Z,92.34
2024-05-09T00:28:59.823Z,92.57
2024-05-09T00:33:02.239Z,92.29
2024-05-09T00:37:04.608Z,92.02
2024-05-09T00:41:06.910Z,91.75
2024-05-09T00:45:09.200Z,91.78
2024-05-09T00:49:12.932Z,92.38
2024-05-09T00:53:16.545Z,92.44
2024-05-09T00:57:18.868Z,92.36
2024-05-09T01:01:24.769Z,92.20
2024-05-09T01:05:27.193Z,93.43
2024-05-09T01:09:29.490Z,94.88
2024-05-09T01:13:31.780Z,96.11
2024-05-09T01:17:34.400Z,97.28
2024-05-09T01:21:41.521Z,97.17
2024-05-09T01:25:44.642Z,96.63
2024-05-09T01:29:47.122Z,97.14
2024-05-09T01:33:49.447Z,96.84
2024-05-09T01:37:52.756Z,97.50
2024-05-09T01:41:55.022Z,97.06
2024-05-09T01:46:16.482Z,96.79
2024-05-09T01:50:25.305Z,96.01
2024-05-09T01:54:37.263Z,95.35
2024-05-09T01:58:39.466Z,96.01
2024-05-09T02:02:45.044Z,94.96
2024-05-09T02:06:47.317Z,95.51
2024-05-09T02:10:50.655Z,95.50
2024-05-09T02:14:53.207Z,96.16
2024-05-09T02:18:55.477Z,97.12
2024-05-09T02:22:58.373Z,97.37
2024-05-09T02:27:00.647Z,97.52
2024-05-09T02:31:02.852Z,97.62
2024-05-09T02:35:05.387Z,96.87
2024-05-09T02:39:07.641Z,94.77
2024-05-09T02:43:12.794Z,96.27
2024-05-09T02:47:15.594Z,96.38
2024-05-09T02:51:17.981Z,96.16
2024-05-09T02:55:20.304Z,96.50
2024-05-09T02:59:22.824Z,96.90
2024-05-09T03:03:25.442Z,97.28
2024-05-09T03:07:27.917Z,97.98
2024-05-09T03:11:30.240Z,97.02
2024-05-09T03:15:33.160Z,96.89
2024-05-09T03:19:36.772Z,96.66
2024-05-09T03:23:41.685Z,95.79
2024-05-09T03:27:44.057Z,96.45
2024-05-09T03:31:46.431Z,96.81
2024-05-09T03:35:49.407Z,97.14
2024-05-09T03:39:51.999Z,97.48
2024-05-09T03:43:54.204Z,97.36
2024-05-09T03:47:56.632Z,98.28
2024-05-09T03:51:59.161Z,98.28
2024-05-09T03:56:03.070Z,97.54
2024-05-09T04:00:12.000Z,96.49
2024-05-09T04:04:19.924Z,97.54
2024-05-09T04:08:22.231Z,98.14
2024-05-09T04:12:24.527Z,98.37
2024-05-09T04:16:26.813Z,98.19
2024-05-09T04:20:37.130Z,99.45
2024-05-09T04:24:42.139Z,98.83
2024-05-09T04:28:44.469Z,98.81
2024-05-09T04:32:46.922Z,98.85
2024-05-09T04:36:49.296Z,92.42
2024-05-09T04:40:51.636Z,82.22
2024-05-09T04:44:56.522Z,79.63
2024-05-09T04:49:00.893Z,74.69
2024-05-09T04:53:03.581Z,72.02
2024-05-09T04:57:06.110Z,69.01
2024-05-09T05:01:08.516Z,68.76
2024-05-09T05:05:12.066Z,68.14
2024-05-09T05:09:14.475Z,58.92
2024-05-09T05:13:18.445Z,51.84
2024-05-09T05:17:21.580Z,46.46
2024-05-09T05:21:24.025Z,43.24
2024-05-09T05:25:26.386Z,41.17
2024-05-09T05:29:28.728Z,40.18
2024-05-09T05:33:31.253Z,42.93
2024-05-09T05:37:33.727Z,42.39
2024-05-09T05:41:36.074Z,38.14
2024-05-09T05:45:39.130Z,37.39
2024-05-09T05:49:41.763Z,35.31
2024-05-09T05:53:44.781Z,33.73
2024-05-09T05:57:47.178Z,32.01
2024-05-09T06:01:50.245Z,31.00
2024-05-09T06:05:52.559Z,30.36
2024-05-09T06:09:56.015Z,29.48
2024-05-09T06:13:58.545Z,28.37
2024-05-09T06:18:01.188Z,27.92
2024-05-09T06:22:03.990Z,27.48
2024-05-09T06:26:06.299Z,26.24
2024-05-09T06:30:14.415Z,26.54
2024-05-09T06:34:23.258Z,25.71
2024-05-09T06:38:26.631Z,25.90
2024-05-09T06:42:29.110Z,25.73
2024-05-09T06:46:31.425Z,26.58
2024-05-09T06:50:37.630Z,25.70
2024-05-09T06:54:41.528Z,24.87
2024-05-09T06:58:43.838Z,25.76
2024-05-09T07:02:46.260Z,27.40
2024-05-09T07:06:48.620Z,29.03
2024-05-09T07:10:50.992Z,33.02
2024-05-09T07:14:53.336Z,37.83
2024-05-09T07:18:55.889Z,42.31
2024-05-09T07:22:58.696Z,45.00
2024-05-09T07:27:01.943Z,47.91
2024-05-09T07:31:04.337Z,48.77
2024-05-09T07:35:06.718Z,49.31
2024-05-09T07:39:09.516Z,50.29
2024-05-09T07:43:12.961Z,50.75
2024-05-09T07:48:28.884Z,51.80
2024-05-09T07:53:14.348Z,51.39
2024-05-09T07:56:01.901Z,51.32
2024-05-09T08:00:06.033Z,52.05
2024-05-09T08:04:08.862Z,52.53
2024-05-09T08:08:11.466Z,52.74
2024-05-09T08:12:13.840Z,51.81
2024-05-09T08:16:16.223Z,52.42
2024-05-09T08:20:26.857Z,52.16
2024-05-09T08:24:35.661Z,52.43
2024-05-09T08:28:37.946Z,51.32
2024-05-09T08:32:40.699Z,49.80
2024-05-09T08:36:43.159Z,50.43
2024-05-09T08:40:45.683Z,49.11
2024-05-09T08:44:49.242Z,48.68
2024-05-09T08:48:52.825Z,49.48
2024-05-09T08:52:55.487Z,48.61
2024-05-09T08:56:58.249Z,48.63
2024-05-09T09:01:04.038Z,47.99
2024-05-09T09:05:11.220Z,47.60
2024-05-09T09:09:14.189Z,46.80
2024-05-09T09:13:16.348Z,47.64
2024-05-09T09:17:20.424Z,46.98
2024-05-09T09:21:22.714Z,46.70
2024-05-09T09:25:24.975Z,46.40
2024-05-09T09:29:27.307Z,45.08
2024-05-09T09:33:33.126Z,46.28
2024-05-09T09:37:38.008Z,45.43
2024-05-09T09:41:43.572Z,46.50
2024-05-09T09:45:49.805Z,44.32
2024-05-09T09:49:53.015Z,44.36
2024-05-09T09:53:56.440Z,44.00
2024-05-09T09:57:59.743Z,44.59
2024-05-09T10:02:02.466Z,44.04
2024-05-09T10:06:06.909Z,43.94
2024-05-09T10:10:13.999Z,43.79
2024-05-09T10:14:22.264Z,43.90
2024-05-09T10:18:28.396Z,43.14
2024-05-09T10:22:34.014Z,43.81
2024-05-09T10:26:37.457Z,44.01
2024-05-09T10:30:40.036Z,44.02
2024-05-09T10:34:47.139Z,44.44
2024-05-09T10:38:53.835Z,43.47
2024-05-09T10:42:56.876Z,44.55
2024-05-09T10:46:59.311Z,43.96
2024-05-09T10:51:01.711Z,44.62
2024-05-09T10:55:05.782Z,45.95
2024-05-09T10:59:08.214Z,44.85
2024-05-09T11:03:11.649Z,44.75
2024-05-09T11:07:16.371Z,44.24
2024-05-09T11:11:18.905Z,43.94
2024-05-09T11:15:26.684Z,43.63
2024-05-09T11:19:31.023Z,43.50
2024-05-09T11:23:34.611Z,44.69
2024-05-09T11:27:36.928Z,45.25
2024-05-09T11:31:48.886Z,45.18
2024-05-09T11:35:51.463Z,44.31
2024-05-09T11:39:54.205Z,45.45
2024-05-09T11:43:57.960Z,45.80
2024-05-09T11:48:00.440Z,43.69
2024-05-09T11:52:02.838Z,42.84
2024-05-09T11:56:05.422Z,43.32
2024-05-09T12:00:11.867Z,42.81
2024-05-09T12:04:14.627Z,41.77
2024-05-09T12:08:17.099Z,42.03
2024-05-09T12:12:19.375Z,41.34
2024-05-09T12:16:21.874Z,41.32
2024-05-09T12:20:32.371Z,40.34
2024-05-09T12:24:38.668Z,40.24
2024-05-09T12:28:40.931Z,41.87
2024-05-09T12:32:43.267Z,42.52
2024-05-09T12:36:45.714Z,41.28
2024-05-09T12:40:48.177Z,41.35
2024-05-09T12:44:50.443Z,39.98
2024-05-09T12:48:53.696Z,39.78
2024-05-09T12:52:56.308Z,39.53
2024-05-09T12:56:58.621Z,39.04
2024-05-09T13:01:01.164Z,38.83
2024-05-09T13:05:03.908Z,39.45
2024-05-09T13:09:06.398Z,39.35
2024-05-09T13:13:12.022Z,39.23
2024-05-09T13:17:14.451Z,40.79
2024-05-09T13:21:16.705Z,41.00
2024-05-09T13:25:19.100Z,41.06
2024-05-09T13:29:27.231Z,41.18
2024-05-09T13:33:29.720Z,40.40
2024-05-09T13:37:33.157Z,39.91
2024-05-09T13:41:35.434Z,39.60
2024-05-09T13:45:37.753Z,39.40
2024-05-09T13:49:40.201Z,38.78
2024-05-09T13:53:42.542Z,39.62
2024-05-09T13:57:44.947Z,39.30
2024-05-09T14:01:47.274Z,38.66
2024-05-09T14:05:51.181Z,39.53
2024-05-09T14:09:54.710Z,39.06
2024-05-09T14:13:57.120Z,38.30
2024-05-09T14:17:59.406Z,39.35
2024-05-09T14:22:01.822Z,38.49
2024-05-09T14:26:04.449Z,38.46
2024-05-09T14:30:14.920Z,39.51
2024-05-09T14:34:24.867Z,39.06
2024-05-09T14:38:27.754Z,39.94
2024-05-09T14:42:30.076Z,38.69
2024-05-09T14:46:32.375Z,39.70
2024-05-09T14:50:38.367Z,38.70
2024-05-09T14:54:42.476Z,38.85
2024-05-09T14:58:44.759Z,39.27
2024-05-09T15:02:48.024Z,39.23
2024-05-09T15:06:50.430Z,39.10
2024-05-09T15:10:52.955Z,38.60
2024-05-09T15:14:55.427Z,39.16
2024-05-09T15:23:00.155Z,39.99
2024-05-09T15:27:02.599Z,41.18
2024-05-09T15:31:05.072Z,41.50
2024-05-09T15:35:07.670Z,40.64
2024-05-09T15:39:10.020Z,39.46
2024-05-09T15:43:12.443Z,39.48
2024-05-09T15:47:14.999Z,40.07
2024-05-09T15:51:17.277Z,40.69
2024-05-09T15:55:19.598Z,40.95
2024-05-09T15:59:39.010Z,40.33
2024-05-09T16:03:41.466Z,41.02
2024-05-09T16:07:43.911Z,40.98
2024-05-09T16:11:46.188Z,39.75
2024-05-09T16:15:48.694Z,39.47
2024-05-09T16:19:51.124Z,40.01
2024-05-09T16:23:53.323Z,39.47
2024-05-09T16:27:55.736Z,39.07
2024-05-09T16:31:57.979Z,39.71
2024-05-09T16:36:00.385Z,40.38
2024-05-09T16:40:04.385Z,39.60
2024-05-09T16:44:08.041Z,39.91
2024-05-09T16:48:11.560Z,40.95
2024-05-09T16:52:15.126Z,40.00
2024-05-09T16:56:17.723Z,40.23
2024-05-09T17:00:31.025Z,39.64
2024-05-09T17:04:42.823Z,40.26
2024-05-09T17:08:45.384Z,40.29
2024-05-09T17:12:47.686Z,40.91
2024-05-09T17:16:50.024Z,42.35
2024-05-09T17:20:52.527Z,42.10
2024-05-09T17:24:54.853Z,42.43
2024-05-09T17:28:57.379Z,43.16
2024-05-09T17:32:59.798Z,43.67
2024-05-09T17:37:02.279Z,44.06
2024-05-09T17:41:04.765Z,43.96
2024-05-09T17:45:07.469Z,42.86
2024-05-09T17:49:09.863Z,42.73
2024-05-09T17:53:12.147Z,43.23
2024-05-09T17:57:14.363Z,43.63
2024-05-09T18:01:16.670Z,44.10
2024-05-09T18:05:19.073Z,45.36
2024-05-09T18:09:21.381Z,46.93
2024-05-09T18:13:23.750Z,48.39
2024-05-09T18:17:26.387Z,48.33
2024-05-09T18:21:28.802Z,50.02
2024-05-09T18:25:31.176Z,51.64
2024-05-09T18:29:33.439Z,52.37
2024-05-09T18:33:35.885Z,53.29
2024-05-09T18:37:42.948Z,54.24
2024-05-09T18:41:45.216Z,55.31
2024-05-09T18:45:47.779Z,55.61
2024-05-09T18:49:50.734Z,56.06
2024-05-09T18:53:55.131Z,56.44
2024-05-09T18:57:57.483Z,57.47
2024-05-09T19:01:59.939Z,58.55
2024-05-09T19:06:02.536Z,60.11
2024-05-09T19:10:07.483Z,60.31
2024-05-09T19:14:14.068Z,60.38
2024-05-09T19:18:17.278Z,60.58
2024-05-09T19:22:19.803Z,60.91
2024-05-09T19:26:25.470Z,60.92
2024-05-09T19:30:36.716Z,61.97
2024-05-09T19:34:43.121Z,62.36
2024-05-09T19:38:45.615Z,63.25
2024-05-09T19:42:47.866Z,63.78
2024-05-09T19:46:50.232Z,64.85
2024-05-09T19:50:53.283Z,65.42
2024-05-09T19:54:55.851Z,66.52
2024-05-09T19:58:58.134Z,67.93
2024-05-09T20:03:00.676Z,68.08
2024-05-09T20:07:03.105Z,68.57
2024-05-09T20:11:05.703Z,69.37
2024-05-09T20:15:08.476Z,69.83
2024-05-09T20:19:10.855Z,71.05
2024-05-09T20:23:13.827Z,71.51
2024-05-09T20:27:16.082Z,72.46
2024-05-09T20:31:23.061Z,72.05
2024-05-09T20:35:26.584Z,72.15
2024-05-09T20:39:28.925Z,72.62
2024-05-09T20:43:31.280Z,73.27
2024-05-09T20:47:33.580Z,72.78
2024-05-09T20:51:35.919Z,73.42
2024-05-09T20:55:38.893Z,72.92
2024-05-09T20:59:41.113Z,74.05
2024-05-09T21:03:43.784Z,76.38
2024-05-09T21:07:46.083Z,76.09
2024-05-09T21:11:48.386Z,75.91
2024-05-09T21:15:51.149Z,76.45
2024-05-09T21:19:53.535Z,77.30
2024-05-09T21:23:55.811Z,77.32
2024-05-09T21:27:58.652Z,77.18
2024-05-09T21:32:01.044Z,77.85
2024-05-09T21:36:03.344Z,78.20
2024-05-09T21:40:11.318Z,79.15
2024-05-09T21:44:16.043Z,79.06
2024-05-09T21:48:18.294Z,79.73
2024-05-09T21:52:20.671Z,80.08
2024-05-09T21:56:22.885Z,80.41
2024-05-09T22:00:32.893Z,80.86
2024-05-09T22:04:39.923Z,80.62
2024-05-09T22:08:42.530Z,79.41
2024-05-09T22:12:44.847Z,79.84
2024-05-09T22:16:47.164Z,80.91
2024-05-09T22:20:49.856Z,81.20
2024-05-09T22:24:52.145Z,81.48
2024-05-09T22:28:54.446Z,83.09
2024-05-09T22:32:56.768Z,83.69
2024-05-09T22:36:59.089Z,84.21
2024-05-09T22:41:01.609Z,84.13
2024-05-09T22:45:04.051Z,84.59
2024-05-09T22:49:07.050Z,85.35
2024-05-09T22:53:09.366Z,85.55
2024-05-09T22:57:11.578Z,86.28
2024-05-09T23:01:16.769Z,87.59
2024-05-09T23:05:19.203Z,88.05
2024-05-09T23:09:21.578Z,87.08
2024-05-09T23:13:23.879Z,86.93
2024-05-09T23:17:26.341Z,87.55
2024-05-09T23:21:28.642Z,87.37
2024-05-09T23:25:30.941Z,88.32
2024-05-09T23:29:33.199Z,88.60
2024-05-09T23:33:35.837Z,88.12
2024-05-09T23:37:38.175Z,86.95
2024-05-09T23:41:40.404Z,87.46
2024-05-09T23:45:43.337Z,88.75
2024-05-09T23:49:45.715Z,88.86
2024-05-09T23:53:48.030Z,89.56
2024-05-09T23:57:50.284Z,90.68
